Time;durP1;ratioP1;P1;durP2;ratioP2;P2;SDS_P1;SDS_P2;PMS_P1;PMS_P2;Temp;Humidity;BMP_temperature;BMP_pressure;BME280_temperature;BME280_humidity;BME280_pressure;Samples;Min_cycle;Max_cycle;Signal;HPM_P1;HPM_P2
2023/06/05 00:01:19;;;;;;;2.97;2.30;;;13.70;72.20;;;;;;5093427;28;20849;-61
2023/06/05 00:03:47;;;;;;;2.77;2.10;;;13.70;73.00;;;;;;5093618;28;20434;-59
2023/06/05 00:06:14;;;;;;;3.33;2.53;;;13.70;73.70;;;;;;5093238;28;20439;-61
2023/06/05 00:08:41;;;;;;;2.93;2.33;;;13.60;74.40;;;;;;5093441;28;20450;-59
2023/06/05 00:11:08;;;;;;;4.23;2.47;;;13.60;75.30;;;;;;5093670;28;20446;-60
2023/06/05 00:13:35;;;;;;;3.93;2.50;;;13.60;76.10;;;;;;5093113;28;20525;-59
2023/06/05 00:16:03;;;;;;;3.87;2.73;;;13.50;76.70;;;;;;5092978;28;20482;-59
2023/06/05 00:18:29;;;;;;;2.97;2.63;;;13.50;77.60;;;;;;5092997;28;20450;-59
2023/06/05 00:20:58;;;;;;;3.80;2.57;;;13.40;78.20;;;;;;5092888;28;20959;-60
2023/06/05 00:23:24;;;;;;;3.33;2.90;;;13.40;79.20;;;;;;5092940;28;20473;-59
2023/06/05 00:25:51;;;;;;;7.77;2.90;;;13.40;80.70;;;;;;5093086;28;20446;-60
2023/06/05 00:28:18;;;;;;;2.93;2.70;;;13.30;81.00;;;;;;5096524;28;20442;-59
2023/06/05 00:30:45;;;;;;;3.40;2.73;;;13.30;82.30;;;;;;5097011;28;20515;-58
2023/06/05 00:33:12;;;;;;;5.57;2.40;;;13.30;83.40;;;;;;5097280;28;20469;-59
2023/06/05 00:35:40;;;;;;;4.10;2.87;;;13.20;84.00;;;;;;5097198;28;20442;-59
2023/06/05 00:38:08;;;;;;;6.30;3.23;;;13.20;85.10;;;;;;5096715;28;20998;-59
2023/06/05 00:40:34;;;;;;;4.07;2.27;;;13.10;85.80;;;;;;5097013;28;20446;-59
2023/06/05 00:43:01;;;;;;;3.03;2.70;;;13.10;87.50;;;;;;5096941;28;20462;-59
2023/06/05 00:45:28;;;;;;;2.70;2.50;;;13.00;88.00;;;;;;5096999;28;20442;-59
2023/06/05 00:47:56;;;;;;;5.80;3.03;;;13.00;89.00;;;;;;5096855;28;20442;-59
2023/06/05 00:50:23;;;;;;;4.23;2.53;;;12.90;90.00;;;;;;5096275;28;20452;-58
2023/06/05 00:52:50;;;;;;;5.47;2.87;;;12.80;90.70;;;;;;5096769;28;20462;-58
2023/06/05 00:55:19;;;;;;;3.60;3.17;;;12.80;91.20;;;;;;5096829;28;20442;-59
2023/06/05 00:57:46;;;;;;;3.50;2.90;;;12.70;91.90;;;;;;5096736;28;20477;-59
2023/06/05 01:00:13;;;;;;;4.20;3.13;;;12.70;92.20;;;;;;5096712;28;20442;-59
2023/06/05 01:02:40;;;;;;;3.63;2.87;;;12.60;92.80;;;;;;5096577;28;20849;-58
2023/06/05 01:05:08;;;;;;;4.07;2.70;;;12.60;93.30;;;;;;5096452;28;20443;-58
2023/06/05 01:07:38;;;;;;;3.10;2.50;;;12.50;93.90;;;;;;5096556;28;20438;-58
2023/06/05 01:10:06;;;;;;;3.83;2.50;;;12.50;94.40;;;;;;5096247;28;20900;-59
2023/06/05 01:12:45;;;;;;;5.93;2.93;;;12.40;95.10;;;;;;5096364;28;20903;-58
2023/06/05 01:15:13;;;;;;;3.73;2.87;;;12.40;95.40;;;;;;5096609;28;20429;-59
2023/06/05 01:17:42;;;;;;;3.50;3.17;;;12.30;96.00;;;;;;5099156;28;20492;-59
2023/06/05 01:20:11;;;;;;;3.93;2.90;;;12.30;96.50;;;;;;5097129;28;20443;-59
2023/06/05 01:22:38;;;;;;;3.53;2.87;;;12.20;96.80;;;;;;5096297;28;20476;-59
2023/06/05 01:25:09;;;;;;;6.20;3.60;;;12.20;97.20;;;;;;5096086;28;20441;-59
2023/06/05 01:27:43;;;;;;;2.73;2.47;;;12.10;97.70;;;;;;5096266;28;20442;-59
2023/06/05 01:30:19;;;;;;;4.73;3.57;;;12.10;98.30;;;;;;5096100;28;20434;-59
2023/06/05 01:32:53;;;;;;;4.03;2.97;;;12.10;98.50;;;;;;5095859;28;20462;-59
2023/06/05 01:35:21;;;;;;;4.00;3.57;;;12.00;98.70;;;;;;5096164;28;20401;-59
2023/06/05 01:37:49;;;;;;;5.27;4.20;;;11.90;99.10;;;;;;5096090;28;20474;-59
2023/06/05 01:40:20;;;;;;;4.80;2.60;;;11.90;99.40;;;;;;5095458;28;20488;-59
2023/06/05 01:42:48;;;;;;;4.20;2.50;;;11.90;99.90;;;;;;5095942;28;20813;-59
2023/06/05 01:45:16;;;;;;;4.60;3.33;;;11.90;99.90;;;;;;5095812;28;20442;-59
2023/06/05 01:47:43;;;;;;;5.80;3.13;;;11.80;99.90;;;;;;5095773;28;20662;-59
2023/06/05 01:50:12;;;;;;;4.60;2.93;;;11.80;99.90;;;;;;5095750;28;20442;-60
2023/06/05 01:52:41;;;;;;;4.30;3.40;;;11.80;99.90;;;;;;5095434;28;20540;-59
2023/06/05 01:55:12;;;;;;;4.97;3.20;;;11.70;99.90;;;;;;5096025;28;20458;-59
2023/06/05 01:57:40;;;;;;;5.93;3.00;;;11.70;99.90;;;;;;5095706;28;20466;-59
2023/06/05 02:00:12;;;;;;;5.70;3.30;;;11.60;99.90;;;;;;5095613;28;20450;-60
2023/06/05 02:02:41;;;;;;;4.53;3.27;;;11.60;99.90;;;;;;5095500;28;20501;-59
2023/06/05 02:05:08;;;;;;;4.33;3.30;;;11.60;99.90;;;;;;5096187;28;20889;-59
2023/06/05 02:07:38;;;;;;;3.57;2.80;;;11.50;99.90;;;;;;5097007;28;20442;-59
2023/06/05 02:10:05;;;;;;;3.93;3.07;;;11.40;99.90;;;;;;5096993;28;20526;-59
2023/06/05 02:12:32;;;;;;;4.80;3.20;;;11.40;99.90;;;;;;5096200;28;20986;-58
2023/06/05 02:15:00;;;;;;;7.10;3.40;;;11.40;99.90;;;;;;5096319;28;20468;-58
2023/06/05 02:17:28;;;;;;;8.17;4.10;;;11.30;99.90;;;;;;5095591;28;20480;-58
2023/06/05 02:19:55;;;;;;;4.63;3.23;;;11.30;99.90;;;;;;5095373;28;20445;-58
2023/06/05 02:22:23;;;;;;;6.23;3.70;;;11.20;99.90;;;;;;5095731;28;20546;-58
2023/06/05 02:24:51;;;;;;;4.77;3.03;;;11.20;99.90;;;;;;5095863;28;20480;-58
2023/06/05 02:27:19;;;;;;;2.90;2.70;;;11.20;99.90;;;;;;5095966;28;20492;-59
2023/06/05 02:29:46;;;;;;;6.20;3.33;;;11.10;99.90;;;;;;5095377;28;20447;-59
2023/06/05 02:32:14;;;;;;;5.73;3.23;;;11.10;99.90;;;;;;5095265;28;20437;-59
2023/06/05 02:34:41;;;;;;;5.07;3.83;;;11.00;99.90;;;;;;5094802;28;20446;-59
2023/06/05 02:37:08;;;;;;;4.70;3.70;;;11.00;99.90;;;;;;5095268;28;20470;-59
2023/06/05 02:39:35;;;;;;;6.07;3.87;;;10.90;99.90;;;;;;5095793;28;20438;-58
2023/06/05 02:42:01;;;;;;;4.70;3.60;;;10.90;99.90;;;;;;5095607;28;20490;-59
2023/06/05 02:44:29;;;;;;;6.20;3.90;;;10.90;99.90;;;;;;5095550;28;20442;-59
2023/06/05 02:46:56;;;;;;;4.15;3.30;;;10.80;99.90;;;;;;5095437;28;20446;-59
2023/06/05 02:49:24;;;;;;;3.70;2.70;;;10.80;99.90;;;;;;5094895;28;20196;-59
2023/06/05 02:51:51;;;;;;;6.60;3.17;;;10.80;99.90;;;;;;5094144;28;20511;-59
2023/06/05 02:54:18;;;;;;;4.95;4.03;;;10.80;99.90;;;;;;5095181;28;20537;-59
2023/06/05 02:56:45;;;;;;;5.00;3.50;;;10.70;99.90;;;;;;5094379;28;20204;-59
2023/06/05 02:59:11;;;;;;;8.48;3.85;;;10.70;99.90;;;;;;5094531;28;20451;-58
2023/06/05 03:01:47;;;;;;;5.27;3.70;;;10.70;99.90;;;;;;5094541;28;20235;-58
2023/06/05 03:04:13;;;;;;;4.32;3.88;;;10.60;99.90;;;;;;5094362;28;20426;-60
2023/06/05 03:06:43;;;;;;;5.03;3.50;;;10.60;99.90;;;;;;5094165;28;20284;-59
2023/06/05 03:09:10;;;;;;;8.10;3.77;;;10.60;99.90;;;;;;5094341;28;20456;-59
2023/06/05 03:11:36;;;;;;;5.60;4.20;;;10.60;99.90;;;;;;5094080;28;20488;-59
2023/06/05 03:14:03;;;;;;;4.30;3.58;;;10.60;99.90;;;;;;5094227;28;20196;-60
2023/06/05 03:16:37;;;;;;;4.90;3.60;;;10.60;99.90;;;;;;5093857;28;20196;-59
2023/06/05 03:19:04;;;;;;;6.20;4.13;;;10.60;99.90;;;;;;5093807;28;20417;-59
2023/06/05 03:21:30;;;;;;;6.70;3.93;;;10.60;99.90;;;;;;5093751;28;20231;-62
2023/06/05 03:23:59;;;;;;;6.75;4.85;;;10.60;99.90;;;;;;5093795;28;20453;-59
2023/06/05 03:26:26;;;;;;;6.00;4.20;;;10.60;99.90;;;;;;5093743;28;20204;-59
2023/06/05 03:28:53;;;;;;;5.70;4.00;;;10.60;99.90;;;;;;5093647;28;20200;-59
2023/06/05 03:31:19;;;;;;;8.73;4.73;;;10.60;99.90;;;;;;5093473;28;20201;-60
2023/06/05 03:33:46;;;;;;;5.93;4.82;;;10.50;99.90;;;;;;5093341;28;20443;-61
2023/06/05 03:36:15;;;;;;;5.68;3.70;;;10.50;99.90;;;;;;5093432;28;20200;-60
2023/06/05 03:38:41;;;;;;;5.13;3.70;;;10.50;99.90;;;;;;5093357;28;20694;-61
2023/06/05 03:41:10;;;;;;;4.40;3.77;;;10.60;99.90;;;;;;5093100;28;20545;-60
2023/06/05 03:43:37;;;;;;;7.40;4.55;;;10.60;99.90;;;;;;5093382;28;20499;-60
2023/06/05 03:46:05;;;;;;;4.30;3.90;;;10.60;99.90;;;;;;5093292;28;20212;-60
2023/06/05 03:48:32;;;;;;;5.70;4.30;;;10.60;99.90;;;;;;5093449;28;20473;-59
2023/06/05 03:51:00;;;;;;;7.97;5.00;;;10.60;99.90;;;;;;5093348;28;20295;-59
2023/06/05 03:53:28;;;;;;;5.70;4.13;;;10.70;99.90;;;;;;5093129;28;20220;-59
2023/06/05 03:55:56;;;;;;;7.27;5.20;;;10.90;99.90;;;;;;5093178;28;20451;-59
2023/06/05 03:58:26;;;;;;;5.60;4.83;;;11.30;99.90;;;;;;5093486;28;20478;-59
2023/06/05 04:00:54;;;;;;;5.43;4.60;;;11.60;99.90;;;;;;5093741;28;20483;-59
2023/06/05 04:03:21;;;;;;;5.50;4.20;;;11.90;99.90;;;;;;5092728;28;20493;-61
2023/06/05 04:05:48;;;;;;;6.90;4.63;;;12.20;99.90;;;;;;5093737;28;20490;-60
2023/06/05 04:11:49;;;;;;;9.50;4.93;;;12.60;99.90;;;;;;5130921;27;20675;-59
2023/06/05 04:14:16;;;;;;;6.20;4.60;;;12.90;99.90;;;;;;5130795;27;20999;-59
2023/06/05 04:16:43;;;;;;;5.23;4.73;;;13.10;99.90;;;;;;5131035;28;20446;-60
2023/06/05 04:19:12;;;;;;;5.00;4.47;;;13.30;99.90;;;;;;5131111;28;20448;-60
2023/06/05 04:21:39;;;;;;;4.37;3.87;;;13.50;99.90;;;;;;5130959;28;20473;-60
2023/06/05 04:24:09;;;;;;;5.77;4.30;;;13.60;99.90;;;;;;5130586;28;20918;-60
2023/06/05 04:26:36;;;;;;;6.83;4.87;;;13.80;99.90;;;;;;5130608;28;21033;-61
2023/06/05 04:29:09;;;;;;;4.60;4.10;;;14.00;99.90;;;;;;5130650;28;20964;-61
2023/06/05 04:31:40;;;;;;;5.97;4.77;;;14.20;99.90;;;;;;5130910;28;20579;-61
2023/06/05 04:34:07;;;;;;;6.07;4.13;;;14.30;99.90;;;;;;5130945;28;20425;-61
2023/06/05 04:36:35;;;;;;;8.93;4.67;;;14.50;99.90;;;;;;5130392;28;20827;-61
2023/06/05 04:39:03;;;;;;;5.70;4.33;;;14.50;99.90;;;;;;5130764;28;20440;-61
2023/06/05 04:41:32;;;;;;;6.10;4.57;;;14.60;99.90;;;;;;5130565;28;20533;-61
2023/06/05 04:43:59;;;;;;;6.90;4.40;;;14.70;99.30;;;;;;5130677;28;20464;-61
2023/06/05 04:46:27;;;;;;;8.40;5.37;;;14.80;98.60;;;;;;5130479;28;20945;-61
2023/06/05 04:48:57;;;;;;;7.77;5.00;;;14.90;98.00;;;;;;5130725;27;20517;-62
2023/06/05 04:51:24;;;;;;;6.10;4.70;;;15.00;97.40;;;;;;5130679;28;20902;-62
2023/06/05 04:53:59;;;;;;;6.47;4.23;;;15.10;97.20;;;;;;5130806;28;20453;-61
2023/06/05 04:56:26;;;;;;;5.23;4.23;;;15.10;96.30;;;;;;5130573;27;20528;-61
2023/06/05 04:58:53;;;;;;;5.23;4.57;;;15.20;96.00;;;;;;5130766;28;20495;-61
2023/06/05 05:01:20;;;;;;;5.47;4.97;;;15.20;95.50;;;;;;5130436;28;20462;-61
2023/06/05 05:03:48;;;;;;;6.83;5.30;;;15.40;94.80;;;;;;5130967;28;20441;-61
2023/06/05 05:06:16;;;;;;;8.13;4.87;;;15.40;94.40;;;;;;5130524;28;20440;-61
2023/06/05 05:08:44;;;;;;;6.00;4.40;;;15.50;93.90;;;;;;5130439;28;20445;-62
2023/06/05 05:11:12;;;;;;;7.20;5.63;;;15.60;93.40;;;;;;5129838;28;20571;-61
2023/06/05 05:13:39;;;;;;;7.30;5.37;;;15.70;92.80;;;;;;5130343;27;20493;-61
2023/06/05 05:16:07;;;;;;;7.93;5.67;;;15.80;92.30;;;;;;5129945;28;20441;-61
2023/06/05 05:18:34;;;;;;;5.77;4.70;;;16.00;91.80;;;;;;5130186;28;20501;-62
2023/06/05 05:21:02;;;;;;;7.00;4.80;;;16.30;90.40;;;;;;5128488;28;20527;-62
2023/06/05 05:23:29;;;;;;;10.10;4.93;;;16.50;89.20;;;;;;5116088;28;20475;-62
2023/06/05 05:25:56;;;;;;;6.07;4.97;;;16.60;87.20;;;;;;5116132;28;20446;-63
2023/06/05 05:28:23;;;;;;;10.67;5.07;;;16.60;85.60;;;;;;5115981;28;20441;-62
2023/06/05 05:30:49;;;;;;;4.80;4.33;;;16.60;85.40;;;;;;5121905;28;20473;-61
2023/06/05 05:33:17;;;;;;;6.93;4.43;;;16.60;84.70;;;;;;5115964;28;20468;-61
2023/06/05 05:35:44;;;;;;;6.37;5.20;;;16.60;84.10;;;;;;5116759;28;20935;-61
2023/06/05 05:38:13;;;;;;;7.53;5.70;;;16.70;83.60;;;;;;5115730;28;20801;-61
2023/06/05 05:40:40;;;;;;;7.20;5.33;;;16.70;82.80;;;;;;5116002;28;20997;-61
2023/06/05 05:43:06;;;;;;;10.10;5.03;;;16.70;82.10;;;;;;5115274;28;20836;-61
2023/06/05 05:45:33;;;;;;;7.03;5.47;;;16.80;81.30;;;;;;5116018;28;20444;-61
2023/06/05 05:48:00;;;;;;;6.37;5.70;;;16.90;80.00;;;;;;5116250;28;20441;-61
2023/06/05 05:50:27;;;;;;;6.07;5.23;;;16.80;79.70;;;;;;5115483;28;20512;-60
2023/06/05 05:52:54;;;;;;;6.90;5.40;;;16.80;80.10;;;;;;5115622;28;20465;-60
2023/06/05 05:55:45;;;;;;;8.63;4.97;;;16.90;79.80;;;;;;5116677;28;20502;-61
2023/06/05 05:58:12;;;;;;;7.73;4.40;;;17.00;78.30;;;;;;5114057;28;20454;-61
2023/06/05 06:00:39;;;;;;;7.70;4.87;;;17.10;78.30;;;;;;5115445;28;20441;-62
2023/06/05 06:03:07;;;;;;;7.90;4.53;;;17.10;78.00;;;;;;5115377;28;20464;-61
2023/06/05 06:05:34;;;;;;;26.10;7.70;;;17.20;77.70;;;;;;5115304;28;20449;-61
2023/06/05 06:08:01;;;;;;;5.87;4.87;;;17.30;76.60;;;;;;5115116;28;20538;-61
2023/06/05 06:10:28;;;;;;;7.30;4.87;;;17.20;76.60;;;;;;5114938;28;20485;-62
2023/06/05 06:12:56;;;;;;;6.80;4.47;;;17.30;76.00;;;;;;5115565;28;20469;-62
2023/06/05 06:15:23;;;;;;;7.40;4.83;;;17.30;75.50;;;;;;5118505;28;20450;-60
2023/06/05 06:17:50;;;;;;;6.10;5.03;;;17.30;75.30;;;;;;5115628;28;20936;-60
2023/06/05 06:20:17;;;;;;;6.03;4.93;;;17.20;75.10;;;;;;5115109;28;20520;-60
2023/06/05 06:22:44;;;;;;;4.93;4.40;;;17.00;75.20;;;;;;5114828;28;20838;-60
2023/06/05 06:25:14;;;;;;;6.10;4.17;;;16.90;75.30;;;;;;5115023;28;20932;-60
2023/06/05 06:27:41;;;;;;;5.07;4.57;;;16.90;75.40;;;;;;5115300;28;20483;-59
2023/06/05 06:30:11;;;;;;;7.27;4.47;;;16.80;75.20;;;;;;5125128;28;20451;-61
2023/06/05 06:32:37;;;;;;;5.80;4.80;;;16.80;74.70;;;;;;5114343;28;20908;-61
2023/06/05 06:35:06;;;;;;;8.50;5.70;;;16.90;74.20;;;;;;5114064;28;20446;-64
2023/06/05 06:37:33;;;;;;;5.40;4.90;;;17.00;73.40;;;;;;5114641;28;20495;-62
2023/06/05 06:40:00;;;;;;;9.30;7.37;;;17.10;72.40;;;;;;5114869;28;20449;-63
2023/06/05 06:42:27;;;;;;;6.90;4.70;;;17.20;71.90;;;;;;5115517;28;20457;-62
2023/06/05 06:44:55;;;;;;;5.67;4.37;;;17.10;71.60;;;;;;5115350;28;20494;-63
2023/06/05 06:47:25;;;;;;;7.10;5.13;;;17.10;71.20;;;;;;5115241;28;20460;-62
2023/06/05 06:49:52;;;;;;;10.63;5.43;;;17.10;70.90;;;;;;5115102;28;20442;-61
2023/06/05 06:52:20;;;;;;;7.03;4.47;;;17.10;70.40;;;;;;5114964;28;20477;-60
2023/06/05 06:54:46;;;;;;;7.20;4.50;;;17.10;70.20;;;;;;5114766;28;20565;-62
2023/06/05 06:57:13;;;;;;;5.67;4.83;;;17.10;70.30;;;;;;5115007;28;20445;-61
2023/06/05 06:59:41;;;;;;;9.70;4.30;;;17.00;70.60;;;;;;5114978;28;20445;-60
2023/06/05 07:02:13;;;;;;;7.73;4.67;;;17.00;70.80;;;;;;5114670;28;20458;-63
2023/06/05 07:04:42;;;;;;;7.70;4.87;;;17.10;70.60;;;;;;5114523;28;20446;-62
2023/06/05 07:07:11;;;;;;;7.80;4.50;;;17.10;70.30;;;;;;5114559;28;20445;-63
2023/06/05 07:09:37;;;;;;;6.90;4.60;;;17.20;70.30;;;;;;5114267;28;20457;-61
2023/06/05 07:12:06;;;;;;;7.57;4.50;;;17.40;69.60;;;;;;5114678;28;20491;-61
2023/06/05 07:14:33;;;;;;;6.67;4.43;;;17.50;68.80;;;;;;5115276;28;20885;-62
2023/06/05 07:17:00;;;;;;;7.23;4.87;;;17.60;68.30;;;;;;5114312;28;20450;-62
2023/06/05 07:19:28;;;;;;;5.33;4.40;;;17.70;67.70;;;;;;5114338;28;20543;-61
2023/06/05 07:21:57;;;;;;;9.13;4.93;;;17.90;67.20;;;;;;5113861;28;20506;-62
2023/06/05 07:24:25;;;;;;;4.77;4.27;;;18.10;66.40;;;;;;5113964;28;20445;-62
2023/06/05 07:26:52;;;;;;;4.70;3.87;;;18.30;65.40;;;;;;5114137;28;20442;-62
2023/06/05 07:29:20;;;;;;;5.33;4.10;;;18.50;64.30;;;;;;5113691;28;20519;-62
2023/06/05 07:31:47;;;;;;;7.73;4.80;;;18.50;63.50;;;;;;5113893;28;20511;-61
2023/06/05 07:34:14;;;;;;;6.40;4.37;;;18.50;62.80;;;;;;5113753;28;20441;-61
2023/06/05 07:36:41;;;;;;;5.17;4.17;;;18.60;62.30;;;;;;5115295;28;20452;-61
2023/06/05 07:39:11;;;;;;;6.93;4.00;;;18.70;61.60;;;;;;5113933;28;20787;-62
2023/06/05 07:41:38;;;;;;;4.43;3.63;;;18.80;60.90;;;;;;5113925;28;20464;-61
2023/06/05 07:44:04;;;;;;;5.80;3.83;;;18.90;60.00;;;;;;5114284;28;20464;-61
2023/06/05 07:46:31;;;;;;;5.50;4.17;;;18.90;59.70;;;;;;5114025;28;20981;-61
2023/06/05 07:48:58;;;;;;;5.73;4.10;;;19.00;59.50;;;;;;5113944;28;20449;-61
2023/06/05 07:51:25;;;;;;;9.17;4.07;;;19.20;58.90;;;;;;5113347;28;20998;-61
2023/06/05 07:53:51;;;;;;;4.20;3.57;;;19.40;58.30;;;;;;5116659;28;20445;-63
2023/06/05 07:56:23;;;;;;;7.33;4.30;;;19.50;57.80;;;;;;5114821;28;20452;-62
2023/06/05 07:58:51;;;;;;;5.77;3.90;;;19.60;57.40;;;;;;5114259;28;20445;-62
2023/06/05 08:01:18;;;;;;;4.53;3.20;;;19.70;56.70;;;;;;5114538;28;20445;-62
2023/06/05 08:03:45;;;;;;;5.10;3.87;;;19.90;56.00;;;;;;5114639;28;20452;-61
2023/06/05 08:06:12;;;;;;;3.70;3.07;;;20.00;55.50;;;;;;5113505;28;20475;-61
2023/06/05 08:08:39;;;;;;;5.13;3.43;;;20.20;55.30;;;;;;5113974;28;20441;-62
2023/06/05 08:11:05;;;;;;;4.20;3.80;;;20.30;55.10;;;;;;5113387;28;20485;-62
2023/06/05 08:13:33;;;;;;;4.60;3.30;;;20.40;54.90;;;;;;5113484;28;20497;-61
2023/06/05 08:16:00;;;;;;;3.83;3.20;;;20.50;54.80;;;;;;5113274;28;20449;-62
2023/06/05 08:18:27;;;;;;;4.00;3.50;;;20.60;54.60;;;;;;5113842;28;20442;-62
2023/06/05 08:20:54;;;;;;;5.67;3.23;;;20.80;54.00;;;;;;5114289;28;20450;-61
2023/06/05 08:23:21;;;;;;;11.90;3.60;;;20.80;53.60;;;;;;5113148;28;20466;-62
2023/06/05 08:25:48;;;;;;;8.23;3.33;;;20.90;53.50;;;;;;5113549;28;20449;-62
2023/06/05 08:28:15;;;;;;;4.17;2.80;;;20.90;53.10;;;;;;5113608;28;20450;-61
2023/06/05 08:30:44;;;;;;;3.60;2.60;;;21.00;52.60;;;;;;5118597;28;20446;-62
2023/06/05 08:33:11;;;;;;;6.60;3.30;;;21.00;52.40;;;;;;5118638;28;20467;-61
2023/06/05 08:35:40;;;;;;;3.70;3.30;;;21.10;52.10;;;;;;5113188;28;20851;-62
2023/06/05 08:38:07;;;;;;;6.67;3.50;;;21.20;51.80;;;;;;5112718;28;20444;-62
2023/06/05 08:40:36;;;;;;;4.50;3.07;;;21.30;51.60;;;;;;5113278;28;20448;-60
2023/06/05 08:43:03;;;;;;;3.20;2.50;;;21.50;51.10;;;;;;5112853;28;20968;-63
2023/06/05 08:45:32;;;;;;;3.40;2.73;;;21.70;50.30;;;;;;5113372;28;20447;-62
2023/06/05 08:48:02;;;;;;;4.60;2.93;;;21.80;49.80;;;;;;5112885;28;20792;-61
2023/06/05 08:50:30;;;;;;;5.67;2.80;;;21.80;49.30;;;;;;5113049;28;20945;-62
2023/06/05 08:52:59;;;;;;;4.43;2.40;;;21.80;48.90;;;;;;5113766;28;20518;-62
2023/06/05 08:55:26;;;;;;;6.57;2.70;;;21.90;48.60;;;;;;5114470;28;20447;-62
2023/06/05 08:57:53;;;;;;;5.67;2.53;;;22.00;48.30;;;;;;5124239;28;20458;-61
2023/06/05 09:00:22;;;;;;;5.13;2.90;;;22.10;47.90;;;;;;5117335;28;20454;-62
2023/06/05 09:02:48;;;;;;;9.40;2.77;;;22.30;47.70;;;;;;5117296;28;20535;-63
2023/06/05 09:05:17;;;;;;;5.60;2.70;;;22.40;47.50;;;;;;5117060;28;20467;-62
2023/06/05 09:07:45;;;;;;;4.77;2.87;;;22.60;47.30;;;;;;5117113;28;20443;-62
2023/06/05 09:10:23;;;;;;;4.00;2.43;;;22.70;46.80;;;;;;5117158;28;20498;-62
2023/06/05 09:12:55;;;;;;;4.23;2.70;;;22.80;46.40;;;;;;5116818;28;20510;-62
2023/06/05 09:15:22;;;;;;;4.57;2.10;;;22.90;46.20;;;;;;5117889;28;20452;-63
2023/06/05 09:17:49;;;;;;;3.83;2.53;;;23.00;45.70;;;;;;5117259;28;20441;-61
2023/06/05 09:20:26;;;;;;;3.17;2.40;;;23.10;45.20;;;;;;5116520;28;20437;-61
2023/06/05 09:22:53;;;;;;;4.47;2.57;;;23.20;44.80;;;;;;5118108;28;20460;-62
2023/06/05 09:25:20;;;;;;;6.50;3.20;;;23.20;44.30;;;;;;5117294;28;20520;-63
2023/06/05 09:28:06;;;;;;;2.40;2.10;;;23.30;44.00;;;;;;5117035;28;20531;-63
2023/06/05 09:30:33;;;;;;;4.37;2.60;;;23.40;43.40;;;;;;5117060;28;20907;-62
2023/06/05 09:33:09;;;;;;;5.30;2.90;;;23.40;43.00;;;;;;5117681;28;20480;-62
2023/06/05 09:35:38;;;;;;;5.00;2.30;;;23.60;42.60;;;;;;5117037;28;20425;-62
2023/06/05 09:38:25;;;;;;;6.50;2.20;;;23.80;41.40;;;;;;5117008;28;20514;-62
2023/06/05 09:40:52;;;;;;;4.63;1.90;;;23.90;40.20;;;;;;5117436;28;20812;-62
2023/06/05 09:43:23;;;;;;;3.10;1.90;;;23.90;39.60;;;;;;5118490;28;20462;-62
2023/06/05 09:45:50;;;;;;;2.53;1.60;;;23.90;39.40;;;;;;5123172;28;20455;-62
2023/06/05 09:48:17;;;;;;;2.57;2.20;;;24.00;39.40;;;;;;5118056;28;20941;-63
2023/06/05 09:50:45;;;;;;;3.60;1.90;;;24.10;39.10;;;;;;5116404;28;20450;-65
2023/06/05 09:53:15;;;;;;;3.33;1.90;;;24.20;38.50;;;;;;5115867;28;20482;-62
2023/06/05 09:55:42;;;;;;;2.33;1.70;;;24.30;36.40;;;;;;5116790;28;20507;-63
2023/06/05 09:58:14;;;;;;;2.10;1.53;;;24.40;34.40;;;;;;5116708;28;20443;-62
2023/06/05 10:00:41;;;;;;;4.03;1.83;;;24.40;33.50;;;;;;5115971;28;20518;-64
2023/06/05 10:03:13;;;;;;;2.23;2.03;;;24.30;33.30;;;;;;5116756;28;20497;-62
2023/06/05 10:05:43;;;;;;;3.60;1.90;;;24.10;33.80;;;;;;5116489;28;20433;-64
2023/06/05 10:08:12;;;;;;;4.30;2.37;;;24.20;34.20;;;;;;5116110;28;20451;-62
2023/06/05 10:10:39;;;;;;;3.20;2.20;;;24.40;34.50;;;;;;5115906;28;20465;-63
2023/06/05 10:13:06;;;;;;;2.60;1.90;;;24.50;34.60;;;;;;5115882;28;20493;-63
2023/06/05 10:15:34;;;;;;;5.43;2.20;;;24.80;34.40;;;;;;5115197;28;20447;-64
2023/06/05 10:18:01;;;;;;;2.27;2.07;;;24.90;33.90;;;;;;5115299;28;20457;-62
2023/06/05 10:20:28;;;;;;;2.30;1.67;;;25.10;33.40;;;;;;5115040;28;20444;-63
2023/06/05 10:22:56;;;;;;;2.80;2.10;;;25.30;32.90;;;;;;5114817;28;20985;-62
2023/06/05 10:25:25;;;;;;;3.37;1.80;;;25.40;32.60;;;;;;5115013;28;20472;-63
2023/06/05 10:28:06;;;;;;;2.07;1.83;;;25.50;32.00;;;;;;5114865;28;20517;-63
2023/06/05 10:31:09;;;;;;;3.63;1.83;;;25.40;31.10;;;;;;5114375;28;20915;-63
2023/06/05 10:33:59;;;;;;;4.23;1.50;;;25.40;30.30;;;;;;5114624;28;20483;-62
2023/06/05 10:36:43;;;;;;;3.00;1.73;;;25.40;30.20;;;;;;5114776;28;20437;-64
2023/06/05 10:39:11;;;;;;;3.60;1.70;;;25.30;30.30;;;;;;5119496;28;20437;-64
2023/06/05 10:41:40;;;;;;;2.43;1.70;;;25.30;30.30;;;;;;5114854;28;20468;-63
2023/06/05 10:44:06;;;;;;;3.03;1.90;;;25.50;30.30;;;;;;5114663;28;20502;-66
2023/06/05 10:46:35;;;;;;;2.87;1.80;;;25.50;30.00;;;;;;5115021;28;20452;-65
2023/06/05 10:49:45;;;;;;;3.47;1.90;;;25.70;30.20;;;;;;5115348;28;20515;-63
2023/06/05 10:52:36;;;;;;;4.47;2.13;;;25.80;29.80;;;;;;5116515;28;20627;-62
2023/06/05 10:55:05;;;;;;;3.30;1.80;;;26.00;29.70;;;;;;5114466;28;20440;-62
2023/06/05 10:58:10;;;;;;;3.10;2.17;;;26.10;29.50;;;;;;5114528;28;20469;-61
2023/06/05 11:00:39;;;;;;;3.47;2.27;;;26.20;29.40;;;;;;5114692;28;20430;-62
2023/06/05 11:03:10;;;;;;;2.73;1.60;;;26.10;29.20;;;;;;5114409;28;20462;-62
2023/06/05 11:05:36;;;;;;;1.97;1.77;;;26.00;29.10;;;;;;5115672;28;20924;-63
2023/06/05 11:08:15;;;;;;;4.43;2.07;;;25.90;29.50;;;;;;5114777;28;20448;-63
2023/06/05 11:11:04;;;;;;;1.70;1.40;;;25.80;29.10;;;;;;5113735;28;20449;-62
2023/06/05 11:13:54;;;;;;;2.30;1.63;;;25.80;29.20;;;;;;5113487;28;20525;-64
2023/06/05 11:16:28;;;;;;;2.63;2.17;;;25.80;29.30;;;;;;5113087;28;20892;-64
2023/06/05 11:18:55;;;;;;;3.30;2.00;;;25.80;29.40;;;;;;5113699;28;20958;-62
2023/06/05 11:21:23;;;;;;;3.23;1.70;;;25.90;29.10;;;;;;5113799;28;20851;-63
2023/06/05 11:24:17;;;;;;;4.93;1.90;;;25.90;28.70;;;;;;5113705;28;20876;-64
2023/06/05 11:26:44;;;;;;;2.17;1.73;;;26.10;28.50;;;;;;5113966;28;20908;-64
2023/06/05 11:29:16;;;;;;;1.90;1.80;;;26.20;28.20;;;;;;5113811;28;20446;-63
2023/06/05 11:31:44;;;;;;;2.10;1.60;;;26.20;27.90;;;;;;5113066;28;21013;-64
2023/06/05 11:34:15;;;;;;;2.93;1.70;;;26.10;27.80;;;;;;5113683;28;20445;-62
2023/06/05 11:36:42;;;;;;;1.60;1.50;;;26.10;27.50;;;;;;5114221;28;20433;-63
2023/06/05 11:39:10;;;;;;;3.33;1.73;;;26.20;27.40;;;;;;5113467;28;20472;-63
2023/06/05 11:41:45;;;;;;;6.57;4.23;;;26.20;27.10;;;;;;5113022;28;20470;-64
2023/06/05 11:44:12;;;;;;;4.63;1.90;;;26.30;27.10;;;;;;5112837;28;20911;-63
2023/06/05 11:46:42;;;;;;;2.90;2.00;;;26.40;26.90;;;;;;5114597;28;20829;-64
2023/06/05 11:49:24;;;;;;;2.47;1.83;;;26.50;27.10;;;;;;5113243;28;20961;-62
2023/06/05 11:51:51;;;;;;;2.57;2.10;;;26.40;27.20;;;;;;5113089;28;20470;-64
2023/06/05 11:54:30;;;;;;;2.33;1.90;;;26.50;27.40;;;;;;5113204;28;20440;-62
2023/06/05 11:56:59;;;;;;;4.03;1.70;;;26.90;27.40;;;;;;5112893;28;20918;-63
2023/06/05 11:59:25;;;;;;;1.83;1.73;;;27.60;27.20;;;;;;5113348;28;20516;-64
2023/06/05 12:01:54;;;;;;;2.30;1.70;;;28.30;26.80;;;;;;5112984;28;20471;-63
2023/06/05 12:04:21;;;;;;;4.00;3.60;;;29.00;26.30;;;;;;5113051;28;20452;-63
2023/06/05 12:06:48;;;;;;;2.70;2.20;;;29.40;25.80;;;;;;5113231;28;20452;-64
2023/06/05 12:09:15;;;;;;;3.77;1.90;;;29.70;25.50;;;;;;5113041;28;20518;-63
2023/06/05 12:11:44;;;;;;;2.87;2.13;;;29.80;25.10;;;;;;5112675;28;20472;-63
2023/06/05 12:14:11;;;;;;;2.33;2.13;;;29.80;24.80;;;;;;5113086;28;20489;-64
2023/06/05 12:16:40;;;;;;;4.23;2.30;;;29.90;24.70;;;;;;5113058;28;20453;-64
2023/06/05 12:19:32;;;;;;;2.80;2.20;;;30.10;24.50;;;;;;5113902;28;20452;-64
2023/06/05 12:22:04;;;;;;;4.00;1.90;;;30.40;24.30;;;;;;5115222;28;20460;-64
2023/06/05 12:24:31;;;;;;;3.17;2.40;;;30.50;24.10;;;;;;5114231;28;20471;-64
2023/06/05 12:26:59;;;;;;;2.83;2.00;;;30.60;24.20;;;;;;5113476;28;20462;-64
2023/06/05 12:29:28;;;;;;;3.43;2.30;;;30.80;24.10;;;;;;5113816;28;20452;-62
2023/06/05 12:31:56;;;;;;;3.23;2.10;;;30.90;23.90;;;;;;5114333;28;20499;-61
2023/06/05 12:34:46;;;;;;;3.03;1.90;;;30.80;23.90;;;;;;5117128;28;20446;-63
2023/06/05 12:37:21;;;;;;;2.27;2.07;;;30.70;24.70;;;;;;5117277;28;20432;-61
2023/06/05 12:39:48;;;;;;;2.10;1.83;;;30.60;24.40;;;;;;5117742;28;20434;-62
2023/06/05 12:42:15;;;;;;;1.87;1.50;;;30.40;24.50;;;;;;5116868;28;20979;-62
2023/06/05 12:44:42;;;;;;;5.30;2.00;;;30.00;24.60;;;;;;5117134;28;20440;-58
2023/06/05 12:47:09;;;;;;;4.83;2.30;;;29.40;25.00;;;;;;5117163;28;20443;-63
2023/06/05 12:49:36;;;;;;;4.30;2.03;;;28.90;25.40;;;;;;5117897;28;20449;-63
2023/06/05 12:52:07;;;;;;;3.00;2.20;;;28.50;26.00;;;;;;5116917;28;20472;-62
2023/06/05 12:54:33;;;;;;;2.30;2.10;;;28.40;26.30;;;;;;5117402;28;20434;-63
2023/06/05 12:57:00;;;;;;;3.10;2.07;;;28.30;26.40;;;;;;5116505;28;20447;-63
2023/06/05 12:59:27;;;;;;;2.30;2.10;;;28.10;26.20;;;;;;5116652;28;20446;-64